Time;durP1;ratioP1;P1;durP2;ratioP2;P2;SDS_P1;SDS_P2;PMS_P1;PMS_P2;Temp;Humidity;BMP_temperature;BMP_pressure;BME280_temperature;BME280_humidity;BME280_pressure;Samples;Min_cycle;Max_cycle;Signal;HPM_P1;HPM_P2
2021/10/17 00:00:23;;;;;;;19.33;10.35;;;;;;;;;;5012257;28;20203;-47
2021/10/17 00:02:49;;;;;;;15.70;10.18;;;;;;;;;;5012097;28;20164;-47
2021/10/17 00:05:17;;;;;;;17.65;9.65;;;;;;;;;;5012244;28;20172;-47
2021/10/17 00:07:43;;;;;;;21.98;12.50;;;;;;;;;;5012201;28;20172;-47
2021/10/17 00:10:11;;;;;;;23.58;12.80;;;;;;;;;;5012001;28;20710;-47
2021/10/17 00:12:39;;;;;;;28.92;13.30;;;;;;;;;;5011898;28;20647;-48
2021/10/17 00:15:06;;;;;;;27.00;14.25;;;;;;;;;;5011952;28;20203;-47
2021/10/17 00:17:32;;;;;;;23.15;13.07;;;;;;;;;;5010749;28;20658;-47
2021/10/17 00:19:58;;;;;;;26.63;11.30;;;;;;;;;;5012095;28;20516;-48
2021/10/17 00:22:24;;;;;;;21.40;12.65;;;;;;;;;;5011691;28;20194;-47
2021/10/17 00:24:50;;;;;;;19.93;11.93;;;;;;;;;;5011946;28;20165;-47
2021/10/17 00:27:15;;;;;;;15.63;11.40;;;;;;;;;;5011980;28;20431;-47
2021/10/17 00:29:41;;;;;;;21.33;11.70;;;;;;;;;;5012001;28;20406;-47
2021/10/17 00:32:10;;;;;;;19.63;10.67;;;;;;;;;;5011693;28;20431;-47
2021/10/17 00:34:36;;;;;;;18.55;11.93;;;;;;;;;;5011993;28;20451;-49
2021/10/17 00:37:02;;;;;;;15.93;10.60;;;;;;;;;;5012238;28;20542;-47
2021/10/17 00:39:29;;;;;;;16.30;10.50;;;;;;;;;;5011886;28;20161;-47
2021/10/17 00:41:55;;;;;;;16.70;10.37;;;;;;;;;;5011592;28;20235;-48
2021/10/17 00:44:22;;;;;;;15.32;10.45;;;;;;;;;;5011841;28;20891;-47
2021/10/17 00:46:49;;;;;;;16.63;9.90;;;;;;;;;;5011746;28;20181;-47
2021/10/17 00:49:15;;;;;;;17.33;10.15;;;;;;;;;;5011768;28;20454;-47
2021/10/17 00:51:42;;;;;;;18.03;10.10;;;;;;;;;;5011405;28;20216;-48
2021/10/17 00:54:11;;;;;;;18.38;9.10;;;;;;;;;;5011506;28;20459;-47
2021/10/17 00:56:37;;;;;;;16.13;9.27;;;;;;;;;;5011621;28;20267;-47
2021/10/17 00:59:23;;;;;;;15.13;10.10;;;;;;;;;;5011943;28;20173;-47
2021/10/17 01:01:49;;;;;;;16.10;9.82;;;;;;;;;;5010714;28;20544;-47
2021/10/17 01:04:15;;;;;;;17.20;9.73;;;;;;;;;;5011189;28;20176;-47
2021/10/17 01:06:42;;;;;;;17.90;9.18;;;;;;;;;;5011423;28;20403;-46
2021/10/17 01:09:08;;;;;;;17.08;10.35;;;;;;;;;;5011573;28;20172;-47
2021/10/17 01:11:43;;;;;;;12.03;8.90;;;;;;;;;;5011429;28;20197;-47
2021/10/17 01:14:09;;;;;;;13.05;9.65;;;;;;;;;;5011444;28;20458;-48
2021/10/17 01:16:37;;;;;;;16.10;9.75;;;;;;;;;;5011443;28;20352;-47
2021/10/17 01:19:03;;;;;;;16.80;10.30;;;;;;;;;;5011544;28;20191;-47
2021/10/17 01:21:29;;;;;;;15.80;8.90;;;;;;;;;;5011314;28;20660;-47
2021/10/17 01:23:56;;;;;;;13.52;10.00;;;;;;;;;;5011286;28;20779;-47
2021/10/17 01:26:22;;;;;;;14.50;10.38;;;;;;;;;;5012030;28;20260;-47
2021/10/17 01:28:50;;;;;;;16.00;10.13;;;;;;;;;;5014961;28;20199;-47
2021/10/17 01:31:16;;;;;;;18.08;11.02;;;;;;;;;;5014802;28;20429;-47
2021/10/17 01:33:42;;;;;;;14.23;11.20;;;;;;;;;;5014609;28;20295;-47
2021/10/17 01:36:08;;;;;;;24.60;11.30;;;;;;;;;;5014856;28;20396;-47
2021/10/17 01:38:34;;;;;;;23.00;11.13;;;;;;;;;;5014704;28;20399;-47
2021/10/17 01:41:00;;;;;;;14.73;9.50;;;;;;;;;;5014814;28;20423;-47
2021/10/17 01:43:29;;;;;;;27.70;10.80;;;;;;;;;;5014539;28;20411;-47
2021/10/17 01:45:57;;;;;;;18.10;11.10;;;;;;;;;;5014581;28;20411;-47
2021/10/17 01:48:23;;;;;;;13.27;9.25;;;;;;;;;;5014617;28;20168;-47
2021/10/17 01:50:49;;;;;;;14.17;10.00;;;;;;;;;;5014442;28;20270;-47
2021/10/17 01:53:15;;;;;;;18.30;10.90;;;;;;;;;;5014231;28;20403;-47
2021/10/17 01:55:41;;;;;;;17.50;11.30;;;;;;;;;;5014437;28;20404;-47
2021/10/17 01:58:07;;;;;;;27.77;11.02;;;;;;;;;;5014334;28;20399;-47
2021/10/17 02:00:33;;;;;;;20.07;11.30;;;;;;;;;;5014196;28;20294;-47
2021/10/17 02:02:59;;;;;;;13.73;10.03;;;;;;;;;;5014244;28;20396;-47
2021/10/17 02:05:25;;;;;;;19.70;11.40;;;;;;;;;;5014295;28;20883;-47
2021/10/17 02:07:50;;;;;;;15.73;9.90;;;;;;;;;;5014302;28;20399;-48
2021/10/17 02:10:16;;;;;;;15.97;10.73;;;;;;;;;;5014103;28;20534;-47
2021/10/17 02:12:42;;;;;;;30.73;10.90;;;;;;;;;;5013891;28;20506;-47
2021/10/17 02:15:08;;;;;;;16.40;11.20;;;;;;;;;;5013943;28;20454;-47
2021/10/17 02:17:35;;;;;;;16.30;10.43;;;;;;;;;;5014151;28;20399;-47
2021/10/17 02:20:01;;;;;;;24.13;10.90;;;;;;;;;;5014001;28;20169;-47
2021/10/17 02:22:27;;;;;;;19.33;10.60;;;;;;;;;;5013592;28;20258;-47
2021/10/17 02:24:53;;;;;;;15.80;9.43;;;;;;;;;;5013912;28;20407;-47
2021/10/17 02:27:19;;;;;;;22.20;11.20;;;;;;;;;;5013764;28;20585;-47
2021/10/17 02:29:45;;;;;;;20.77;10.57;;;;;;;;;;5013751;28;20817;-47
2021/10/17 02:32:11;;;;;;;16.43;10.27;;;;;;;;;;5013505;28;20440;-47
2021/10/17 02:34:38;;;;;;;17.43;11.30;;;;;;;;;;5013583;28;20485;-47
2021/10/17 02:37:04;;;;;;;14.88;10.52;;;;;;;;;;5013504;28;20399;-47
2021/10/17 02:39:31;;;;;;;14.67;10.27;;;;;;;;;;5012800;28;20171;-47
2021/10/17 02:41:57;;;;;;;17.45;10.88;;;;;;;;;;5013259;28;20447;-47
2021/10/17 02:44:23;;;;;;;14.27;9.90;;;;;;;;;;5013546;28;20208;-47
2021/10/17 02:46:49;;;;;;;26.23;11.33;;;;;;;;;;5013408;28;20410;-47
2021/10/17 02:49:15;;;;;;;15.37;10.80;;;;;;;;;;5013384;28;20445;-47
2021/10/17 02:51:41;;;;;;;18.00;11.17;;;;;;;;;;5013140;28;20601;-47
2021/10/17 02:54:07;;;;;;;24.33;10.97;;;;;;;;;;5013171;28;20455;-47
2021/10/17 02:56:32;;;;;;;17.73;10.30;;;;;;;;;;5013181;28;20431;-47
2021/10/17 02:58:58;;;;;;;15.60;9.97;;;;;;;;;;5013215;28;20404;-47
2021/10/17 03:01:24;;;;;;;16.63;10.33;;;;;;;;;;5013134;28;20419;-47
2021/10/17 03:03:50;;;;;;;18.10;11.73;;;;;;;;;;5012979;28;20411;-47
2021/10/17 03:06:16;;;;;;;21.23;10.82;;;;;;;;;;5013136;28;20411;-48
2021/10/17 03:08:42;;;;;;;18.92;10.82;;;;;;;;;;5013138;28;20164;-47
2021/10/17 03:11:08;;;;;;;14.17;10.93;;;;;;;;;;5012920;28;20192;-47
2021/10/17 03:13:34;;;;;;;19.70;13.13;;;;;;;;;;5012691;28;20451;-47
2021/10/17 03:16:00;;;;;;;15.23;10.93;;;;;;;;;;5012990;28;20450;-47
2021/10/17 03:18:26;;;;;;;15.10;10.60;;;;;;;;;;5012897;28;20833;-47
2021/10/17 03:20:52;;;;;;;20.00;11.50;;;;;;;;;;5012780;28;20459;-47
2021/10/17 03:23:18;;;;;;;17.97;10.30;;;;;;;;;;5012606;28;20395;-47
2021/10/17 03:25:44;;;;;;;13.73;10.03;;;;;;;;;;5012684;28;20890;-47
2021/10/17 03:28:10;;;;;;;12.80;10.00;;;;;;;;;;5012714;28;20430;-47
2021/10/17 03:30:37;;;;;;;15.47;10.37;;;;;;;;;;5011352;28;20443;-48
2021/10/17 03:33:03;;;;;;;17.30;10.00;;;;;;;;;;5012490;28;20407;-47
2021/10/17 03:35:29;;;;;;;19.60;10.60;;;;;;;;;;5012585;28;20176;-47
2021/10/17 03:37:55;;;;;;;14.93;9.63;;;;;;;;;;5012512;28;20410;-48
2021/10/17 03:40:21;;;;;;;17.70;11.33;;;;;;;;;;5012405;28;20489;-47
2021/10/17 03:42:47;;;;;;;15.67;10.63;;;;;;;;;;5012294;28;20408;-47
2021/10/17 03:45:13;;;;;;;15.87;9.50;;;;;;;;;;5012619;28;20724;-47
2021/10/17 03:47:39;;;;;;;16.87;11.40;;;;;;;;;;5012433;28;20404;-48
2021/10/17 03:50:05;;;;;;;16.53;11.17;;;;;;;;;;5011978;28;20487;-48
2021/10/17 03:52:31;;;;;;;17.83;10.40;;;;;;;;;;5046840;22;20568;-46
2021/10/17 03:54:58;;;;;;;18.53;9.80;;;;;;;;;;5032092;28;20546;-47
2021/10/17 03:57:25;;;;;;;15.30;10.70;;;;;;;;;;5032055;28;20728;-46
2021/10/17 03:59:52;;;;;;;14.57;9.90;;;;;;;;;;5032004;28;20551;-46
2021/10/17 04:02:18;;;;;;;20.17;10.30;;;;;;;;;;5031750;28;20278;-46
2021/10/17 04:04:43;;;;;;;15.40;10.30;;;;;;;;;;5031912;28;20407;-46
2021/10/17 04:07:09;;;;;;;12.50;9.50;;;;;;;;;;5031929;28;20403;-46
2021/10/17 04:09:35;;;;;;;16.43;11.03;;;;;;;;;;5031888;28;20830;-46
2021/10/17 04:12:01;;;;;;;12.88;9.82;;;;;;;;;;5031594;28;20426;-46
2021/10/17 04:14:27;;;;;;;14.03;9.60;;;;;;;;;;5031948;28;20257;-46
2021/10/17 04:16:53;;;;;;;19.67;10.50;;;;;;;;;;5031778;28;20916;-47
2021/10/17 04:19:19;;;;;;;16.87;9.97;;;;;;;;;;5031750;28;20413;-47
2021/10/17 04:21:45;;;;;;;16.77;10.57;;;;;;;;;;5031580;28;20418;-47
2021/10/17 04:24:11;;;;;;;16.00;10.00;;;;;;;;;;5031724;28;20421;-46
2021/10/17 04:26:37;;;;;;;16.93;10.33;;;;;;;;;;5031620;28;20473;-46
2021/10/17 04:29:04;;;;;;;16.30;11.30;;;;;;;;;;5031720;28;20410;-46
2021/10/17 04:31:30;;;;;;;25.23;10.97;;;;;;;;;;5031572;28;20422;-46
2021/10/17 04:33:56;;;;;;;17.67;10.63;;;;;;;;;;5031324;28;20492;-47
2021/10/17 04:36:22;;;;;;;15.77;10.80;;;;;;;;;;5031559;28;20394;-48
2021/10/17 04:38:51;;;;;;;18.50;9.90;;;;;;;;;;5031605;28;20956;-46
2021/10/17 04:41:17;;;;;;;16.60;10.43;;;;;;;;;;5031592;28;20180;-47
2021/10/17 04:43:43;;;;;;;18.13;11.33;;;;;;;;;;5031352;28;20248;-47
2021/10/17 04:46:09;;;;;;;10.47;9.00;;;;;;;;;;5031595;28;20437;-46
2021/10/17 04:48:35;;;;;;;15.32;9.75;;;;;;;;;;5031447;28;20405;-46
2021/10/17 04:51:01;;;;;;;10.67;8.50;;;;;;;;;;5031298;28;20211;-46
2021/10/17 04:53:27;;;;;;;13.97;9.30;;;;;;;;;;5031213;28;20784;-46
2021/10/17 04:55:53;;;;;;;12.87;9.00;;;;;;;;;;5031501;28;20409;-46
2021/10/17 04:58:19;;;;;;;16.77;9.30;;;;;;;;;;5031431;28;20870;-46
2021/10/17 05:00:45;;;;;;;12.60;9.63;;;;;;;;;;5031409;28;20406;-47
2021/10/17 05:03:11;;;;;;;20.07;11.53;;;;;;;;;;5034716;28;20431;-46
2021/10/17 05:05:38;;;;;;;18.93;10.37;;;;;;;;;;5035203;28;20444;-46
2021/10/17 05:08:04;;;;;;;18.43;10.20;;;;;;;;;;5034983;28;20402;-46
2021/10/17 05:10:30;;;;;;;18.00;9.73;;;;;;;;;;5035085;28;20411;-46
2021/10/17 05:12:56;;;;;;;19.17;9.85;;;;;;;;;;5034821;28;20251;-45
2021/10/17 05:15:22;;;;;;;14.23;10.20;;;;;;;;;;5034950;28;20675;-46
2021/10/17 05:17:48;;;;;;;15.93;10.50;;;;;;;;;;5034868;28;20492;-46
2021/10/17 05:20:14;;;;;;;20.35;10.70;;;;;;;;;;5034914;28;20407;-46
2021/10/17 05:22:40;;;;;;;15.67;10.80;;;;;;;;;;5034416;28;20671;-46
2021/10/17 05:25:06;;;;;;;19.70;10.30;;;;;;;;;;5034869;28;20399;-46
2021/10/17 05:27:32;;;;;;;13.93;9.50;;;;;;;;;;5034742;28;20425;-47
2021/10/17 05:29:58;;;;;;;17.57;12.00;;;;;;;;;;5034863;28;20399;-46
2021/10/17 05:32:24;;;;;;;19.87;10.20;;;;;;;;;;5034339;28;20454;-46
2021/10/17 05:34:51;;;;;;;16.67;9.73;;;;;;;;;;5034551;28;20454;-46
2021/10/17 05:37:17;;;;;;;13.90;9.67;;;;;;;;;;5034557;28;20413;-47
2021/10/17 05:39:43;;;;;;;21.48;10.20;;;;;;;;;;5034546;28;20408;-46
2021/10/17 05:42:09;;;;;;;18.73;9.70;;;;;;;;;;5034260;28;20188;-46
2021/10/17 05:44:35;;;;;;;15.40;9.00;;;;;;;;;;5034537;28;20402;-46
2021/10/17 05:47:01;;;;;;;13.97;9.60;;;;;;;;;;5034474;28;20404;-47
2021/10/17 05:49:27;;;;;;;19.63;10.20;;;;;;;;;;5034425;28;20409;-47
2021/10/17 05:51:54;;;;;;;18.03;10.50;;;;;;;;;;5034091;28;20948;-46
2021/10/17 05:54:20;;;;;;;19.00;10.10;;;;;;;;;;5034227;28;20941;-46
2021/10/17 05:56:46;;;;;;;13.03;10.37;;;;;;;;;;5034148;28;20263;-46
2021/10/17 05:59:12;;;;;;;16.73;12.23;;;;;;;;;;5034330;28;20400;-46
2021/10/17 06:01:38;;;;;;;18.80;9.70;;;;;;;;;;5033935;28;20473;-50
2021/10/17 06:04:04;;;;;;;14.10;9.40;;;;;;;;;;5034044;28;20406;-47
2021/10/17 06:06:30;;;;;;;13.93;9.70;;;;;;;;;;5034349;28;20866;-46
2021/10/17 06:08:59;;;;;;;16.87;10.10;;;;;;;;;;5034018;28;20407;-47
2021/10/17 06:11:25;;;;;;;16.63;10.00;;;;;;;;;;5034029;28;20793;-47
2021/10/17 06:13:51;;;;;;;12.60;9.77;;;;;;;;;;5033391;28;20446;-46
2021/10/17 06:16:17;;;;;;;16.50;9.90;;;;;;;;;;5033939;28;20415;-47
2021/10/17 06:18:43;;;;;;;13.10;9.53;;;;;;;;;;5033806;28;20434;-47
2021/10/17 06:21:11;;;;;;;19.00;10.43;;;;;;;;;;5033925;28;20479;-46
2021/10/17 06:23:37;;;;;;;18.40;10.00;;;;;;;;;;5033526;28;20886;-47
2021/10/17 06:26:03;;;;;;;28.73;9.80;;;;;;;;;;5033625;28;20422;-48
2021/10/17 06:28:30;;;;;;;14.60;9.30;;;;;;;;;;5033723;28;20411;-46
2021/10/17 06:30:56;;;;;;;13.37;10.60;;;;;;;;;;5033577;28;20427;-47
2021/10/17 06:33:22;;;;;;;17.67;11.87;;;;;;;;;;5033178;28;20775;-46
2021/10/17 06:35:48;;;;;;;17.23;11.77;;;;;;;;;;5033463;28;20415;-47
2021/10/17 06:38:15;;;;;;;13.70;9.27;;;;;;;;;;5033422;28;20490;-46
2021/10/17 06:40:41;;;;;;;13.00;8.57;;;;;;;;;;5033364;28;20917;-46
2021/10/17 06:43:07;;;;;;;19.77;11.03;;;;;;;;;;5033082;28;20403;-46
2021/10/17 06:45:33;;;;;;;14.90;10.00;;;;;;;;;;5033283;28;20437;-47
2021/10/17 06:47:59;;;;;;;16.70;10.40;;;;;;;;;;5033129;28;20172;-45
2021/10/17 06:50:25;;;;;;;15.00;9.37;;;;;;;;;;5033238;28;20952;-47
2021/10/17 06:52:51;;;;;;;13.77;9.50;;;;;;;;;;5032820;28;20807;-47
2021/10/17 06:55:17;;;;;;;12.43;9.60;;;;;;;;;;5033102;28;20465;-48
2021/10/17 06:57:45;;;;;;;24.17;11.23;;;;;;;;;;5031983;28;20884;-47
2021/10/17 07:00:11;;;;;;;17.03;10.70;;;;;;;;;;5032533;28;20490;-46
2021/10/17 07:02:37;;;;;;;13.43;10.10;;;;;;;;;;5031919;28;20493;-46
2021/10/17 07:05:04;;;;;;;21.70;10.23;;;;;;;;;;5032566;28;20516;-46
2021/10/17 07:07:29;;;;;;;16.70;9.43;;;;;;;;;;5032072;28;20789;-46
2021/10/17 07:09:55;;;;;;;17.13;10.13;;;;;;;;;;5032334;28;20498;-46
2021/10/17 07:12:21;;;;;;;22.33;10.33;;;;;;;;;;5032020;28;20430;-46
2021/10/17 07:14:50;;;;;;;16.37;10.67;;;;;;;;;;5031829;28;20950;-46
2021/10/17 07:17:16;;;;;;;17.93;10.33;;;;;;;;;;5032343;28;20397;-46
2021/10/17 07:19:42;;;;;;;15.90;9.50;;;;;;;;;;5032645;28;20861;-46
2021/10/17 07:22:07;;;;;;;22.83;9.87;;;;;;;;;;5032321;28;20822;-47
2021/10/17 07:24:33;;;;;;;18.07;9.87;;;;;;;;;;5031970;28;20404;-47
2021/10/17 07:26:59;;;;;;;17.37;9.00;;;;;;;;;;5032467;28;20910;-47
2021/10/17 07:29:25;;;;;;;14.80;10.23;;;;;;;;;;5032496;28;20470;-47
2021/10/17 07:31:52;;;;;;;16.93;9.83;;;;;;;;;;5032047;28;20433;-47
2021/10/17 07:34:18;;;;;;;15.63;10.00;;;;;;;;;;5032367;28;20466;-47
2021/10/17 07:36:44;;;;;;;9.83;8.80;;;;;;;;;;5031131;28;20419;-46
2021/10/17 07:39:13;;;;;;;15.00;9.30;;;;;;;;;;5032340;28;20404;-47
2021/10/17 07:41:41;;;;;;;16.60;8.70;;;;;;;;;;5032180;28;20486;-47
2021/10/17 07:44:07;;;;;;;12.97;9.47;;;;;;;;;;5032049;28;20409;-47
2021/10/17 07:46:33;;;;;;;12.80;8.90;;;;;;;;;;5032195;28;20408;-46
2021/10/17 07:48:59;;;;;;;17.53;9.93;;;;;;;;;;5032227;28;20900;-46
2021/10/17 07:51:26;;;;;;;15.77;9.67;;;;;;;;;;5031996;28;20477;-46
2021/10/17 07:53:53;;;;;;;16.40;9.33;;;;;;;;;;5031894;28;20443;-47
2021/10/17 07:56:19;;;;;;;15.13;9.60;;;;;;;;;;5032097;28;20428;-47
2021/10/17 07:58:46;;;;;;;12.77;9.20;;;;;;;;;;5032091;28;20430;-46
2021/10/17 08:01:12;;;;;;;14.33;9.10;;;;;;;;;;5031957;28;20949;-47
2021/10/17 08:03:38;;;;;;;9.80;8.57;;;;;;;;;;5031784;28;20472;-47
2021/10/17 08:06:04;;;;;;;15.87;9.90;;;;;;;;;;5031967;28;20922;-47
2021/10/17 08:08:30;;;;;;;17.53;10.47;;;;;;;;;;5031885;28;20416;-46
2021/10/17 08:10:56;;;;;;;12.67;8.33;;;;;;;;;;5031873;28;20444;-47
2021/10/17 08:13:22;;;;;;;15.00;9.80;;;;;;;;;;5031531;28;20465;-47
2021/10/17 08:15:48;;;;;;;13.73;9.57;;;;;;;;;;5031981;28;20396;-46
2021/10/17 08:18:14;;;;;;;12.33;8.70;;;;;;;;;;5031766;28;20398;-46
2021/10/17 08:20:40;;;;;;;14.80;8.80;;;;;;;;;;5031779;28;20402;-47
2021/10/17 08:23:06;;;;;;;13.80;9.80;;;;;;;;;;5031882;28;20397;-46
2021/10/17 08:25:32;;;;;;;15.00;8.53;;;;;;;;;;5031740;28;20417;-46
2021/10/17 08:27:59;;;;;;;14.93;9.80;;;;;;;;;;5031528;28;20407;-47
2021/10/17 08:30:25;;;;;;;15.07;9.57;;;;;;;;;;5031785;28;20411;-47
2021/10/17 08:32:51;;;;;;;14.40;9.57;;;;;;;;;;5031461;28;20424;-46
2021/10/17 08:35:17;;;;;;;13.80;9.07;;;;;;;;;;5032203;28;20924;-47
2021/10/17 08:37:43;;;;;;;10.17;8.40;;;;;;;;;;5035792;28;20490;-47
2021/10/17 08:40:09;;;;;;;12.67;8.87;;;;;;;;;;5035766;28;20429;-47
2021/10/17 08:42:36;;;;;;;15.00;8.70;;;;;;;;;;5035276;28;20429;-47
2021/10/17 08:45:02;;;;;;;17.20;9.53;;;;;;;;;;5035587;28;20402;-47
2021/10/17 08:47:28;;;;;;;17.17;8.50;;;;;;;;;;5035587;28;20493;-49
2021/10/17 08:49:57;;;;;;;14.57;8.80;;;;;;;;;;5035335;28;20552;-49
2021/10/17 08:52:23;;;;;;;16.53;9.70;;;;;;;;;;5035053;28;20442;-47
2021/10/17 08:54:49;;;;;;;18.47;10.30;;;;;;;;;;5035375;28;20449;-46
2021/10/17 08:57:16;;;;;;;11.83;8.97;;;;;;;;;;5035069;28;20402;-46
2021/10/17 08:59:46;;;;;;;11.53;8.93;;;;;;;;;;5035665;28;20408;-47
2021/10/17 09:02:13;;;;;;;10.77;8.43;;;;;;;;;;5034980;28;20462;-47
2021/10/17 09:04:39;;;;;;;12.47;8.50;;;;;;;;;;5035237;28;20409;-46
2021/10/17 09:07:18;;;;;;;9.00;8.10;;;;;;;;;;5033840;28;20419;-49
2021/10/17 09:10:03;;;;;;;12.70;8.90;;;;;;;;;;5034945;28;20505;-47
2021/10/17 09:12:29;;;;;;;13.83;8.67;;;;;;;;;;5034711;28;20434;-47
2021/10/17 09:15:15;;;;;;;11.70;8.83;;;;;;;;;;5034841;28;20524;-46
2021/10/17 09:17:40;;;;;;;13.17;8.13;;;;;;;;;;5034741;28;20402;-47
2021/10/17 09:20:07;;;;;;;19.23;8.60;;;;;;;;;;5034776;28;20399;-47
2021/10/17 09:22:33;;;;;;;10.43;7.73;;;;;;;;;;5034597;28;20441;-48
2021/10/17 09:24:59;;;;;;;22.53;10.50;;;;;;;;;;5034778;28;20465;-46
2021/10/17 09:27:25;;;;;;;15.67;9.13;;;;;;;;;;5034661;28;20406;-47
2021/10/17 09:29:52;;;;;;;13.17;8.50;;;;;;;;;;5034751;28;20887;-47
2021/10/17 09:32:23;;;;;;;13.00;8.27;;;;;;;;;;5034431;28;20527;-47
2021/10/17 09:34:53;;;;;;;18.07;9.17;;;;;;;;;;5034446;28;20451;-46
2021/10/17 09:37:20;;;;;;;10.77;8.70;;;;;;;;;;5034509;28;20398;-46
2021/10/17 09:39:52;;;;;;;15.60;8.80;;;;;;;;;;5034755;28;20819;-47
2021/10/17 09:42:19;;;;;;;12.17;7.73;;;;;;;;;;5034181;28;20441;-46
2021/10/17 09:44:45;;;;;;;12.07;8.00;;;;;;;;;;5034452;28;20408;-46
2021/10/17 09:47:11;;;;;;;9.40;7.47;;;;;;;;;;5033461;28;20909;-47
2021/10/17 09:49:37;;;;;;;12.67;8.40;;;;;;;;;;5034401;28;20898;-47
2021/10/17 09:52:09;;;;;;;15.37;8.40;;;;;;;;;;5034630;28;20451;-47
2021/10/17 09:54:36;;;;;;;12.17;8.03;;;;;;;;;;5034189;28;20545;-48
2021/10/17 09:57:05;;;;;;;10.90;7.73;;;;;;;;;;5034235;28;20399;-47
2021/10/17 09:59:32;;;;;;;11.33;7.90;;;;;;;;;;5034164;28;20446;-47
2021/10/17 10:01:58;;;;;;;11.93;7.13;;;;;;;;;;5033739;28;20432;-48
2021/10/17 10:04:25;;;;;;;14.17;7.80;;;;;;;;;;5034055;28;20408;-48
2021/10/17 10:06:52;;;;;;;8.80;7.20;;;;;;;;;;5034002;28;20400;-48
2021/10/17 10:09:20;;;;;;;12.70;7.60;;;;;;;;;;5033928;28;20819;-48
2021/10/17 10:11:48;;;;;;;12.67;8.10;;;;;;;;;;5033789;28;20434;-48
2021/10/17 10:14:14;;;;;;;13.27;8.70;;;;;;;;;;5033826;28;20539;-48
2021/10/17 10:16:41;;;;;;;8.30;7.50;;;;;;;;;;5033810;28;20408;-48
2021/10/17 10:19:08;;;;;;;11.43;8.17;;;;;;;;;;5033693;28;20405;-48
2021/10/17 10:21:35;;;;;;;17.30;9.17;;;;;;;;;;5033684;28;20429;-48
2021/10/17 10:24:06;;;;;;;10.10;7.40;;;;;;;;;;5033593;28;20440;-48
2021/10/17 10:26:33;;;;;;;11.00;6.90;;;;;;;;;;5033675;28;20413;-48
2021/10/17 10:29:00;;;;;;;11.70;7.10;;;;;;;;;;5033605;28;20412;-48
2021/10/17 10:31:41;;;;;;;10.27;6.77;;;;;;;;;;5033498;28;20905;-48
2021/10/17 10:34:07;;;;;;;11.23;6.00;;;;;;;;;;5033367;28;20485;-48
2021/10/17 10:36:40;;;;;;;9.77;6.60;;;;;;;;;;5033880;28;20862;-48
2021/10/17 10:39:07;;;;;;;8.63;6.50;;;;;;;;;;5033889;28;20440;-48
2021/10/17 10:41:44;;;;;;;14.47;6.30;;;;;;;;;;5033302;28;20739;-49
2021/10/17 10:44:19;;;;;;;9.37;6.40;;;;;;;;;;5033325;28;20933;-49
2021/10/17 10:46:45;;;;;;;12.80;5.10;;;;;;;;;;5033283;28;20401;-48
2021/10/17 10:49:11;;;;;;;8.07;5.77;;;;;;;;;;5033378;28;20445;-48
2021/10/17 10:51:42;;;;;;;8.43;6.20;;;;;;;;;;5012347;28;20429;-48
2021/10/17 10:54:28;;;;;;;11.07;5.50;;;;;;;;;;5013341;28;20429;-49
2021/10/17 10:56:57;;;;;;;7.57;4.90;;;;;;;;;;5013345;28;20388;-49
2021/10/17 10:59:30;;;;;;;9.00;5.30;;;;;;;;;;5012447;28;20879;-48
2021/10/17 11:01:59;;;;;;;11.60;4.80;;;;;;;;;;5013046;28;20911;-48
2021/10/17 11:04:44;;;;;;;14.70;5.30;;;;;;;;;;5013240;28;20411;-50
2021/10/17 11:07:23;;;;;;;9.17;4.53;;;;;;;;;;5013162;28;20410;-49
2021/10/17 11:09:50;;;;;;;7.23;4.37;;;;;;;;;;5013074;28;20413;-49
2021/10/17 11:12:43;;;;;;;8.77;5.03;;;;;;;;;;5012837;28;20406;-49
2021/10/17 11:15:10;;;;;;;8.30;3.67;;;;;;;;;;5013050;28;20966;-48
2021/10/17 11:17:36;;;;;;;6.23;4.13;;;;;;;;;;5028840;28;20418;-49
2021/10/17 11:20:15;;;;;;;5.63;4.30;;;;;;;;;;5069247;28;21047;-48
2021/10/17 11:22:41;;;;;;;5.60;4.40;;;;;;;;;;5068130;28;20405;-48
2021/10/17 11:25:13;;;;;;;12.30;4.83;;;;;;;;;;5068921;28;20463;-49
2021/10/17 11:27:39;;;;;;;8.70;3.90;;;;;;;;;;5069101;28;20366;-48
2021/10/17 11:30:06;;;;;;;5.77;3.97;;;;;;;;;;5068943;28;20456;-48
2021/10/17 11:32:35;;;;;;;7.20;3.80;;;;;;;;;;5068542;28;20420;-48
2021/10/17 11:35:05;;;;;;;4.30;3.50;;;;;;;;;;5068879;28;20380;-48
2021/10/17 11:37:32;;;;;;;13.07;3.83;;;;;;;;;;5068653;28;20388;-48
2021/10/17 11:40:09;;;;;;;7.33;4.10;;;;;;;;;;5068716;28;20457;-48
2021/10/17 11:42:49;;;;;;;8.60;4.27;;;;;;;;;;5068158;28;20841;-48
2021/10/17 11:45:27;;;;;;;4.00;3.00;;;;;;;;;;5068612;28;20396;-48
2021/10/17 11:47:54;;;;;;;3.53;2.93;;;;;;;;;;5068140;28;20397;-48
2021/10/17 11:50:31;;;;;;;4.13;3.40;;;;;;;;;;5068467;28;20404;-48
2021/10/17 11:52:58;;;;;;;6.60;3.80;;;;;;;;;;5068158;28;20402;-47
2021/10/17 11:55:32;;;;;;;8.60;3.57;;;;;;;;;;5068485;28;20913;-48
2021/10/17 11:57:58;;;;;;;3.70;2.80;;;;;;;;;;5068337;28;20406;-48
2021/10/17 12:00:26;;;;;;;4.43;3.30;;;;;;;;;;5068332;28;20391;-48
2021/10/17 12:02:52;;;;;;;9.60;3.87;;;;;;;;;;5068001;28;20455;-48
2021/10/17 12:05:19;;;;;;;5.10;4.00;;;;;;;;;;5068205;28;20478;-47
2021/10/17 12:07:45;;;;;;;6.57;3.40;;;;;;;;;;5068115;28;20399;-48
2021/10/17 12:10:13;;;;;;;7.47;3.40;;;;;;;;;;5068184;28;20371;-48
2021/10/17 12:12:40;;;;;;;4.63;3.67;;;;;;;;;;5067887;28;20760;-48
2021/10/17 12:15:07;;;;;;;5.23;3.23;;;;;;;;;;5067995;28;20495;-49
2021/10/17 12:17:33;;;;;;;5.60;3.23;;;;;;;;;;5068076;28;20473;-48
2021/10/17 12:20:05;;;;;;;4.23;3.83;;;;;;;;;;5067773;28;20442;-48
2021/10/17 12:22:31;;;;;;;4.33;3.67;;;;;;;;;;5067559;28;20487;-49
2021/10/17 12:24:58;;;;;;;6.10;3.47;;;;;;;;;;5067856;28;20394;-48
2021/10/17 12:27:34;;;;;;;4.30;3.37;;;;;;;;;;5067597;28;20402;-48
2021/10/17 12:30:08;;;;;;;6.23;3.23;;;;;;;;;;5062843;28;20435;-48
2021/10/17 12:32:41;;;;;;;6.83;3.43;;;;;;;;;;5054251;28;20472;-48
2021/10/17 12:35:19;;;;;;;5.17;3.10;;;;;;;;;;5054886;28;20463;-49
2021/10/17 12:37:45;;;;;;;4.83;2.70;;;;;;;;;;5054309;28;20418;-48
2021/10/17 12:40:11;;;;;;;4.70;2.57;;;;;;;;;;5054341;28;20499;-49
2021/10/17 12:42:46;;;;;;;5.23;3.00;;;;;;;;;;5054442;28;20433;-49
2021/10/17 12:45:13;;;;;;;4.80;2.60;;;;;;;;;;5054340;28;20495;-49
2021/10/17 12:47:40;;;;;;;5.80;2.90;;;;;;;;;;5054265;28;20403;-49
2021/10/17 12:50:15;;;;;;;2.57;2.37;;;;;;;;;;5054216;28;20413;-49
2021/10/17 12:52:41;;;;;;;5.80;2.87;;;;;;;;;;5053747;28;20708;-49
2021/10/17 12:55:12;;;;;;;5.00;2.87;;;;;;;;;;5054205;28;20881;-49
2021/10/17 12:57:38;;;;;;;2.70;2.50;;;;;;;;;;5054052;28;20496;-49
2021/10/17 13:00:04;;;;;;;2.57;2.37;;;;;;;;;;5053975;28;20453;-48
2021/10/17 13:02:39;;;;;;;5.23;2.20;;;;;;;;;;5053704;28;20500;-48
2021/10/17 13:05:13;;;;;;;7.40;2.13;;;;;;;;;;5053839;28;20389;-49
2021/10/17 13:07:39;;;;;;;4.10;2.60;;;;;;;;;;5053896;28;20863;-49
2021/10/17 13:10:07;;;;;;;2.37;2.00;;;;;;;;;;5054134;28;20397;-49
2021/10/17 13:12:42;;;;;;;2.17;2.07;;;;;;;;;;5053494;28;20429;-49
2021/10/17 13:15:17;;;;;;;3.33;2.20;;;;;;;;;;5053797;28;20429;-49
2021/10/17 13:17:53;;;;;;;3.37;2.43;;;;;;;;;;5053467;28;20424;-49
2021/10/17 13:20:21;;;;;;;3.43;2.23;;;;;;;;;;5053711;28;20791;-49
2021/10/17 13:22:47;;;;;;;1.93;1.70;;;;;;;;;;5053360;28;20409;-49
2021/10/17 13:25:16;;;;;;;2.83;2.47;;;;;;;;;;5053632;28;20393;-48
2021/10/17 13:27:42;;;;;;;3.93;2.70;;;;;;;;;;5053469;28;20401;-49
2021/10/17 13:30:09;;;;;;;3.53;2.50;;;;;;;;;;5053411;28;20405;-49
2021/10/17 13:32:34;;;;;;;2.50;2.30;;;;;;;;;;5053144;28;20413;-49
2021/10/17 13:35:02;;;;;;;2.13;1.93;;;;;;;;;;5053362;28;20401;-49
2021/10/17 13:37:28;;;;;;;3.93;2.20;;;;;;;;;;5053180;28;20772;-49
2021/10/17 13:39:54;;;;;;;4.50;3.17;;;;;;;;;;5053252;28;20445;-49
2021/10/17 13:42:21;;;;;;;3.60;2.50;;;;;;;;;;5052041;28;20928;-48
2021/10/17 13:44:47;;;;;;;10.50;8.27;;;;;;;;;;5053072;28;20405;-48
2021/10/17 13:47:13;;;;;;;4.93;2.80;;;;;;;;;;5053138;28;20410;-48
2021/10/17 13:49:39;;;;;;;2.27;2.07;;;;;;;;;;5053052;28;20808;-48
2021/10/17 13:52:06;;;;;;;5.47;1.97;;;;;;;;;;5052786;28;20428;-49
2021/10/17 13:54:32;;;;;;;2.37;2.17;;;;;;;;;;5052940;28;20494;-48
2021/10/17 13:56:58;;;;;;;2.60;1.80;;;;;;;;;;5052878;28;20405;-48
2021/10/17 13:59:24;;;;;;;5.17;2.33;;;;;;;;;;5052817;28;20952;-48
2021/10/17 14:01:50;;;;;;;6.03;2.20;;;;;;;;;;5052814;28;20423;-49
2021/10/17 14:04:17;;;;;;;3.90;2.57;;;;;;;;;;5052790;28;20400;-48
2021/10/17 14:06:43;;;;;;;5.70;4.10;;;;;;;;;;5052796;28;20407;-49
2021/10/17 14:09:09;;;;;;;3.07;2.73;;;;;;;;;;5052741;28;20409;-48
2021/10/17 14:11:35;;;;;;;2.53;2.20;;;;;;;;;;5052538;28;20425;-49
2021/10/17 14:14:01;;;;;;;2.73;2.40;;;;;;;;;;5052366;28;20401;-48
2021/10/17 14:16:27;;;;;;;3.30;2.30;;;;;;;;;;5052546;28;20406;-48
2021/10/17 14:18:53;;;;;;;4.40;2.60;;;;;;;;;;5052304;28;20442;-48
2021/10/17 14:21:19;;;;;;;5.13;2.57;;;;;;;;;;5052455;28;20496;-48
2021/10/17 14:23:45;;;;;;;2.27;2.03;;;;;;;;;;5052231;28;20400;-47
2021/10/17 14:26:11;;;;;;;2.97;2.30;;;;;;;;;;5052441;28;20374;-49
2021/10/17 14:28:37;;;;;;;2.60;2.37;;;;;;;;;;5052217;28;20878;-48